Araijuku, Japan

2:14 PM JST on April 27, 2017 (GMT +0900)
大田区 | | Change Station

Elev 0 ft 35.58 °N, 139.71 °E | Updated 43 seconds ago

Mostly Cloudy
Mostly Cloudy
66.6 °F
Feels Like 66.6 °F
N
0.6
Wind Variable Wind from NW
Gusts 3.7 mph

Today
High -- | Low -- °F
--% Chance of Precip.
Yesterday
High -- | Low -- °F
Precip. -- in
Pressure 29.62 in
Visibility 6.2 miles
Clouds Few 2000 ft
Scattered Clouds 9000 ft
Dew Point 48 °F
Humidity 50%
Rainfall 0.14 in
Snow Depth Not available.
4:54 AM 6:23 PM
New Moon, 1% visible
METAR RJTT 270500Z 08013KT 9999 FEW020 SCT090 BKN/// 16/08 Q1003 NOSIG RMK 1CU020 3AC090 A2964
Pressure 29.62 in
Visibility 6.2 miles
Clouds Few 2000 ft
Scattered Clouds 9000 ft
Dew Point 48 °F
Humidity 50%
Rainfall 0.14 in
Snow Depth Not available.
4:54 AM 6:23 PM
New Moon, 1% visible
METAR RJTT 270500Z 08013KT 9999 FEW020 SCT090 BKN/// 16/08 Q1003 NOSIG RMK 1CU020 3AC090 A2964

Get Severe Weather Alerts

Thanks for signing up!

Be on the lookout for a verification email in your inbox.

You'll start receiving the daily forecast at 8 AM.

×

10-Day Weather Forecast

No radar image for this location.
×

Almanac

Astronomy

Apr. 27, 2017 Rise Set
Actual Time
Civil Twilight
Nautical Twilight
Astronomical Twilight
Moon
Length of Visible Light
Length of Day
Tomorrow will be .
, % of the Moon is Illuminated

Today's Extremes

Country Highs Country Lows

Community

WunderPhotos

WunderBlog® & News

Nearby

Air Quality

  Air Quality AQ Index Pollutant
Not available.

Snow Depth

Station Depth Elevation

Earthquake Activity

City Distance Mag. Time & Date
Minimum magnitude displayed is 2.5.

Coastal Water Temperatures

Place Temperature

Stations

Nearby Weather Stations

Station Location Temp. Windchill Dew Point Humidity Wind Precip. Elev Updated Type